Time;durP1;ratioP1;P1;durP2;ratioP2;P2;SDS_P1;SDS_P2;PMS_P1;PMS_P2;Temp;Humidity;BMP_temperature;BMP_pressure;BME280_temperature;BME280_humidity;BME280_pressure;Samples;Min_cycle;Max_cycle;Signal;HPM_P1;HPM_P2
2022/07/16 00:03:45;;;;;;;;;3.00;3.00;;;;;23.30;34.22;101455.25;5033775;28;45957;-83
2022/07/16 00:06:10;;;;;;;;;2.75;2.75;;;;;23.30;34.55;101454.41;5034214;28;45645;-84
2022/07/16 00:08:35;;;;;;;;;3.75;3.25;;;;;23.22;34.11;101438.34;5034089;28;45609;-83
2022/07/16 00:11:01;;;;;;;;;3.00;3.00;;;;;23.20;34.45;101454.59;5033694;28;46577;-81
2022/07/16 00:16:48;;;;;;;;;3.00;2.00;;;;;23.20;34.45;101457.28;5033219;28;45471;-84
2022/07/16 00:19:18;;;;;;;;;3.50;3.00;;;;;23.12;34.50;101446.56;5034011;28;45513;-79
2022/07/16 00:21:45;;;;;;;;;3.25;3.00;;;;;23.09;34.89;101444.25;5033621;28;45565;-79
2022/07/16 00:24:11;;;;;;;;;2.50;2.50;;;;;23.03;35.11;101442.25;5034053;28;45959;-84
2022/07/16 00:26:36;;;;;;;;;3.00;2.25;;;;;23.05;35.22;101442.91;5033096;28;45759;-85
2022/07/16 00:29:02;;;;;;;;;3.25;3.00;;;;;23.07;34.95;101451.59;5034186;28;45969;-82
2022/07/16 00:31:27;;;;;;;;;4.00;4.00;;;;;23.03;34.85;101450.28;5033976;28;45615;-85
2022/07/16 00:33:53;;;;;;;;;3.00;3.00;;;;;22.99;35.43;101446.28;5034608;28;45560;-84
2022/07/16 00:36:18;;;;;;;;;3.00;3.00;;;;;23.02;35.55;101453.94;5034667;28;45632;-83
2022/07/16 00:38:44;;;;;;;;;3.00;3.00;;;;;22.94;35.62;101443.28;5040076;28;45510;-81
2022/07/16 00:41:16;;;;;;;;;3.00;3.00;;;;;22.95;35.49;101444.94;5042719;28;46549;-81
2022/07/16 00:47:03;;;;;;;;;4.25;4.25;;;;;22.94;35.62;101459.31;5036025;28;45745;-79
2022/07/16 00:49:30;;;;;;;;;5.00;4.25;;;;;22.89;35.54;101446.44;5034766;28;45606;-82
2022/07/16 00:51:55;;;;;;;;;4.00;4.00;;;;;22.85;35.14;101438.94;5034047;28;45723;-80
2022/07/16 00:54:21;;;;;;;;;4.00;3.50;;;;;22.88;35.46;101447.47;5033880;28;45763;-81
2022/07/16 00:56:48;;;;;;;;;5.00;3.25;;;;;22.85;35.81;101450.44;5034140;28;45653;-84
2022/07/16 01:02:36;;;;;;;;;3.50;3.25;;;;;22.86;36.17;101446.78;5033230;28;46133;-81
2022/07/16 01:05:02;;;;;;;;;5.25;5.00;;;;;22.84;36.04;101450.63;5033650;28;46211;-82
2022/07/16 01:07:28;;;;;;;;;4.25;4.00;;;;;22.81;35.78;101448.28;5033786;28;45728;-82
2022/07/16 01:09:55;;;;;;;;;3.00;3.00;;;;;22.79;35.76;101444.94;5033348;28;45665;-81
2022/07/16 01:12:20;;;;;;;;;3.25;3.00;;;;;22.72;35.82;101444.78;5033149;28;45758;-82
2022/07/16 01:14:46;;;;;;;;;4.00;3.50;;;;;22.63;36.25;101437.72;5033285;28;46130;-80
2022/07/16 01:17:12;;;;;;;;;4.00;4.00;;;;;22.71;35.87;101460.94;5033320;28;45468;-82
2022/07/16 01:19:37;;;;;;;;;4.75;4.00;;;;;22.60;35.82;101448.75;5033876;28;45527;-82
2022/07/16 01:22:03;;;;;;;;;4.25;4.00;;;;;22.56;36.11;101437.56;5034649;28;45611;-82
2022/07/16 01:24:28;;;;;;;;;3.00;3.00;;;;;22.60;36.32;101443.41;5036206;28;45649;-83
2022/07/16 01:26:54;;;;;;;;;3.00;3.00;;;;;22.64;36.34;101455.44;5036574;28;45583;-83
2022/07/16 01:32:41;;;;;;;;;3.75;2.25;;;;;22.57;36.25;101444.56;5035987;28;45944;-83
2022/07/16 01:35:07;;;;;;;;;3.00;2.50;;;;;22.59;36.30;101453.28;5036424;28;45507;-84
2022/07/16 01:37:32;;;;;;;;;3.00;3.00;;;;;22.47;36.51;101435.88;5036732;28;45448;-82
2022/07/16 01:39:58;;;;;;;;;3.75;3.25;;;;;22.49;36.36;101435.72;5036487;28;45661;-82
2022/07/16 01:42:24;;;;;;;;;4.00;3.00;;;;;22.54;36.26;101444.09;5036279;28;46104;-82
2022/07/16 01:48:13;;;;;;;;;4.25;3.75;;;;;22.53;36.38;101445.91;5035282;28;45701;-82
2022/07/16 01:50:42;;;;;;;;;5.00;4.00;;;;;22.49;36.74;101446.41;5038138;28;45589;-83
2022/07/16 01:53:09;;;;;;;;;3.00;3.00;;;;;22.52;36.67;101451.41;5035556;28;48437;-81
2022/07/16 01:55:35;;;;;;;;;3.75;3.00;;;;;22.50;36.73;101448.09;5036154;28;45600;-83
2022/07/16 01:58:05;;;;;;;;;2.75;2.75;;;;;22.45;37.11;101451.25;5036396;28;45663;-83
2022/07/16 02:00:31;;;;;;;;;3.00;3.00;;;;;22.43;36.57;101441.72;5036169;28;45543;-81
2022/07/16 02:02:58;;;;;;;;;3.25;3.25;;;;;22.36;36.59;101433.53;5035866;28;45606;-82
2022/07/16 02:05:23;;;;;;;;;5.00;4.00;;;;;22.42;36.96;101448.06;5036160;28;45495;-84
2022/07/16 02:07:49;;;;;;;;;6.25;5.00;;;;;22.40;37.02;101450.91;5036046;28;45550;-83
2022/07/16 02:10:14;;;;;;;;;6.25;5.25;;;;;22.39;37.14;101445.75;5036107;28;45602;-86
2022/07/16 02:12:40;;;;;;;;;6.75;6.00;;;;;22.35;36.93;101445.22;5036040;28;45872;-85
2022/07/16 02:18:30;;;;;;;;;6.75;6.00;;;;;22.26;37.07;101432.88;5035379;28;45818;-81
2022/07/16 02:20:55;;;;;;;;;9.00;7.00;;;;;22.24;36.82;101437.53;5036660;28;45808;-83
2022/07/16 02:23:21;;;;;;;;;6.75;6.50;;;;;22.21;37.31;101439.69;5039149;28;46600;-81
2022/07/16 02:25:47;;;;;;;;;7.00;6.75;;;;;22.22;37.36;101444.88;5041116;28;45535;-83
2022/07/16 02:28:12;;;;;;;;;6.00;5.75;;;;;22.19;36.98;101439.84;5043160;28;45581;-83
2022/07/16 02:30:41;;;;;;;;;6.50;5.75;;;;;22.18;37.22;101438.22;5044391;28;45629;-83
2022/07/16 02:33:08;;;;;;;;;8.00;5.75;;;;;22.11;37.04;101435.34;5042713;28;46894;-83
2022/07/16 02:35:33;;;;;;;;;6.25;6.25;;;;;22.12;37.38;101446.88;5044061;28;45630;-84
2022/07/16 02:37:59;;;;;;;;;8.75;7.50;;;;;22.01;37.86;101447.16;5043230;28;45695;-83
2022/07/16 02:40:25;;;;;;;;;5.25;4.00;;;;;22.09;37.65;101460.53;5044000;28;45627;-85
2022/07/16 02:42:51;;;;;;;;;4.75;4.75;;;;;22.01;37.54;101456.00;5043124;28;45908;-86
2022/07/16 02:48:38;;;;;;;;;7.00;5.00;;;;;21.92;37.78;101464.94;5043525;28;45732;-84
2022/07/16 02:51:04;;;;;;;;;5.75;5.00;;;;;21.87;38.55;101448.59;5039141;28;45503;-84
2022/07/16 02:53:29;;;;;;;;;3.50;3.25;;;;;21.81;38.36;101451.09;5035931;28;45557;-82
2022/07/16 02:55:55;;;;;;;;;5.00;5.00;;;;;21.75;38.24;101452.56;5035316;28;46168;-81
2022/07/16 02:58:21;;;;;;;;;4.00;4.00;;;;;21.71;37.98;101452.03;5036149;28;45633;-81
2022/07/16 03:04:08;;;;;;;;;3.50;3.50;;;;;21.68;38.95;101448.84;5035432;28;45482;-84
2022/07/16 03:06:34;;;;;;;;;4.00;3.00;;;;;21.65;38.96;101460.66;5017566;28;46094;-83
2022/07/16 03:08:59;;;;;;;;;3.25;3.00;;;;;21.57;39.08;101441.13;5039055;28;45766;-85
2022/07/16 03:11:25;;;;;;;;;3.00;3.00;;;;;21.48;38.83;101434.94;5042179;28;45685;-87
2022/07/16 03:13:50;;;;;;;;;3.75;3.75;;;;;21.51;38.85;101449.78;5041255;28;45922;-81
2022/07/16 03:16:15;;;;;;;;;3.00;3.00;;;;;21.50;39.02;101448.94;5042198;28;45561;-84
2022/07/16 03:18:41;;;;;;;;;4.00;4.00;;;;;21.41;38.54;101441.06;5041588;28;45620;-81
2022/07/16 03:21:06;;;;;;;;;2.25;2.25;;;;;21.43;39.34;101447.06;5042133;28;45405;-85
2022/07/16 03:23:31;;;;;;;;;3.00;3.00;;;;;21.36;38.84;101449.53;5039791;28;46490;-79
2022/07/16 03:25:57;;;;;;;;;5.00;4.50;;;;;21.41;38.78;101451.72;5037358;28;45629;-82
2022/07/16 03:28:22;;;;;;;;;3.75;3.00;;;;;21.38;38.93;101450.19;5038731;28;45430;-85
2022/07/16 03:34:09;;;;;;;;;5.00;3.50;;;;;21.36;38.80;101444.19;5040914;28;45574;-84
2022/07/16 03:36:35;;;;;;;;;3.50;3.50;;;;;21.33;38.98;101448.00;5021422;28;47233;-84
2022/07/16 03:39:09;;;;;;;;;5.00;4.00;;;;;21.26;39.10;101443.47;5039105;28;45511;-82
2022/07/16 03:41:37;;;;;;;;;3.75;3.75;;;;;21.37;39.15;101467.22;5038499;28;45487;-84
2022/07/16 03:44:05;;;;;;;;;6.00;4.25;;;;;21.28;38.92;101449.47;5041067;28;45593;-83
2022/07/16 03:46:31;;;;;;;;;4.50;3.50;;;;;21.29;39.27;101451.16;5038991;28;45800;-81
2022/07/16 03:48:57;;;;;;;;;4.00;4.00;;;;;21.36;39.25;101468.19;5038757;28;45729;-81
2022/07/16 03:51:23;;;;;;;;;6.75;4.75;;;;;21.34;39.28;101470.16;5039962;28;45684;-82
2022/07/16 03:53:49;;;;;;;;;5.75;4.50;;;;;21.31;39.17;101459.84;5018552;28;47622;-83
2022/07/16 03:56:14;;;;;;;;;4.25;3.25;;;;;21.26;39.39;101454.97;5036200;28;45657;-84
2022/07/16 03:58:40;;;;;;;;;4.50;4.25;;;;;21.32;39.34;101466.84;5036234;28;45494;-84
2022/07/16 04:04:27;;;;;;;;;3.00;3.00;;;;;21.26;39.75;101457.66;5037681;28;45573;-78
2022/07/16 04:06:52;;;;;;;;;3.25;3.25;;;;;21.20;39.78;101465.44;5038292;28;45689;-78
2022/07/16 04:09:18;;;;;;;;;3.75;3.00;;;;;21.19;39.89;101467.25;5036742;28;45665;-79
2022/07/16 04:11:43;;;;;;;;;5.00;3.75;;;;;21.14;39.59;101466.03;5035186;28;45721;-80
2022/07/16 04:14:08;;;;;;;;;4.50;4.00;;;;;21.07;39.80;101451.63;5035890;28;45552;-85
2022/07/16 04:19:55;;;;;;;;;3.00;3.00;;;;;21.09;39.75;101478.97;5035486;28;45684;-84
2022/07/16 04:22:21;;;;;;;;;5.00;4.00;;;;;20.99;39.79;101464.91;5016944;28;45655;-84
2022/07/16 04:24:46;;;;;;;;;6.00;5.00;;;;;21.00;39.65;101472.75;5036242;28;46543;-83
2022/07/16 04:27:12;;;;;;;;;4.50;3.50;;;;;20.95;40.05;101467.88;5035541;28;46053;-84
2022/07/16 04:29:37;;;;;;;;;4.25;4.25;;;;;20.99;40.20;101475.56;5035245;28;45730;-82
2022/07/16 04:35:25;;;;;;;;;4.00;3.50;;;;;20.91;39.94;101477.19;5036660;28;45594;-80
2022/07/16 04:37:50;;;;;;;;;4.25;4.00;;;;;20.90;40.24;101469.34;5037015;28;46215;-83
2022/07/16 04:40:16;;;;;;;;;3.00;3.00;;;;;20.91;40.09;101479.00;5036495;28;46130;-83
2022/07/16 04:42:44;;;;;;;;;4.50;4.50;;;;;20.91;40.06;101485.19;5018363;28;45765;-82
2022/07/16 04:45:11;;;;;;;;;5.25;4.75;;;;;20.93;40.59;101493.88;5036781;28;45501;-81
2022/07/16 04:47:38;;;;;;;;;5.00;3.75;;;;;20.79;40.34;101474.91;5035444;28;45653;-84
2022/07/16 04:50:04;;;;;;;;;5.00;4.00;;;;;20.85;40.57;101488.44;5034797;28;45765;-83
2022/07/16 04:52:30;;;;;;;;;4.25;4.00;;;;;20.86;40.66;101484.81;5016560;28;45777;-86
2022/07/16 04:54:56;;;;;;;;;5.00;4.25;;;;;20.83;40.92;101485.13;5034360;28;45813;-85
2022/07/16 04:57:22;;;;;;;;;4.50;3.75;;;;;20.85;40.59;101493.78;5037073;28;45491;-83
2022/07/16 04:59:47;;;;;;;;;3.50;3.50;;;;;20.80;40.71;101488.06;5037518;28;45681;-85
2022/07/16 05:05:36;;;;;;;;;6.25;5.00;;;;;20.80;41.01;101485.41;5037203;28;45730;-86
2022/07/16 05:08:04;;;;;;;;;4.50;4.25;;;;;20.77;40.80;101490.22;5037299;28;45718;-85
2022/07/16 05:10:30;;;;;;;;;4.75;4.25;;;;;20.83;41.26;101498.44;5037459;28;45733;-84
2022/07/16 05:12:56;;;;;;;;;3.75;3.25;;;;;20.83;41.09;101495.78;5018809;28;45591;-83
2022/07/16 05:15:21;;;;;;;;;4.75;4.50;;;;;20.75;40.81;101484.19;5038570;28;45639;-83
2022/07/16 05:17:48;;;;;;;;;6.50;3.75;;;;;20.84;41.20;101491.25;5038164;28;45570;-84
2022/07/16 05:20:14;;;;;;;;;5.25;4.25;;;;;20.84;41.24;101489.44;5038749;28;45598;-82
2022/07/16 05:22:40;;;;;;;;;6.25;4.50;;;;;20.74;41.20;101472.72;5037621;28;45748;-84
2022/07/16 05:25:07;;;;;;;;;5.25;5.25;;;;;20.86;41.36;101492.78;5037457;28;45675;-83
2022/07/16 05:27:33;;;;;;;;;3.75;3.25;;;;;20.82;41.06;101470.13;5036946;28;46567;-83
2022/07/16 05:29:59;;;;;;;;;6.75;5.75;;;;;20.81;41.22;101457.78;5036745;28;45552;-84
2022/07/16 05:35:46;;;;;;;;;5.25;5.25;;;;;20.93;41.20;101482.38;5037727;28;45679;-84
2022/07/16 05:38:12;;;;;;;;;5.75;5.00;;;;;20.94;41.74;101484.84;5022372;28;48310;-84
2022/07/16 05:40:38;;;;;;;;;5.50;5.50;;;;;20.91;41.31;101487.84;5041878;28;45750;-83
2022/07/16 05:43:04;;;;;;;;;5.00;4.50;;;;;20.98;41.48;101487.22;5041346;28;45721;-84
2022/07/16 05:45:30;;;;;;;;;6.50;5.00;;;;;20.86;41.48;101470.63;5041862;28;47055;-83
2022/07/16 05:51:31;;;;;;;;;5.75;5.75;;;;;20.97;41.50;101496.19;5035609;28;45769;-83
2022/07/16 05:53:57;;;;;;;;;6.25;5.25;;;;;21.00;41.39;101509.22;5036689;28;45491;-81
2022/07/16 05:56:22;;;;;;;;;4.00;4.00;;;;;20.97;41.50;101513.03;5036696;28;45742;-82
2022/07/16 05:58:48;;;;;;;;;4.50;4.50;;;;;20.91;41.54;101510.97;5036124;28;45578;-81
2022/07/16 06:01:13;;;;;;;;;5.75;5.25;;;;;20.85;41.88;101499.09;5036478;28;45758;-83
2022/07/16 06:03:39;;;;;;;;;7.00;6.50;;;;;20.97;41.96;101514.84;5036291;28;45537;-84
2022/07/16 06:06:04;;;;;;;;;5.50;5.50;;;;;20.97;42.16;101518.34;5035915;28;45789;-82
2022/07/16 06:08:29;;;;;;;;;5.75;5.75;;;;;20.90;42.01;101503.97;5017055;28;46235;-82
2022/07/16 06:10:55;;;;;;;;;4.50;4.25;;;;;20.95;42.24;101523.84;5035201;28;45549;-83
2022/07/16 06:13:20;;;;;;;;;5.50;4.50;;;;;20.99;41.80;101534.19;5017773;28;45693;-83
2022/07/16 06:15:48;;;;;;;;;5.50;5.50;;;;;20.89;42.03;101518.31;5035744;28;46903;-79
2022/07/16 06:21:35;;;;;;;;;6.75;5.50;;;;;20.97;41.88;101525.50;5035430;28;45785;-84
2022/07/16 06:24:01;;;;;;;;;5.25;5.25;;;;;21.00;41.86;101530.56;5035352;28;45675;-81
2022/07/16 06:26:26;;;;;;;;;5.50;5.25;;;;;21.00;41.91;101539.34;5035487;28;46564;-83
2022/07/16 06:28:51;;;;;;;;;6.00;5.00;;;;;20.97;42.06;101531.69;5035616;28;45798;-82
2022/07/16 06:31:17;;;;;;;;;3.75;3.50;;;;;20.97;42.18;101537.00;5035808;28;45590;-78
2022/07/16 06:33:42;;;;;;;;;3.75;3.75;;;;;20.99;42.30;101544.84;5018075;28;45957;-82
2022/07/16 06:36:08;;;;;;;;;5.25;5.25;;;;;21.01;42.27;101546.38;5036619;28;45526;-87
2022/07/16 06:38:33;;;;;;;;;5.00;3.75;;;;;21.04;42.19;101559.41;5036112;28;45562;-86
2022/07/16 06:40:59;;;;;;;;;4.50;4.00;;;;;21.09;42.01;101558.94;5036098;28;45773;-86
2022/07/16 06:43:25;;;;;;;;;5.00;5.00;;;;;21.09;41.88;101557.09;5036509;28;45535;-85
2022/07/16 06:45:50;;;;;;;;;6.50;6.50;;;;;21.07;42.34;101559.06;5036870;28;45642;-80
2022/07/16 06:51:38;;;;;;;;;5.25;4.50;;;;;21.16;41.85;101568.84;5034350;28;45811;-79
2022/07/16 06:54:03;;;;;;;;;6.00;5.00;;;;;21.17;41.73;101564.34;5033814;28;45851;-82
2022/07/16 06:56:29;;;;;;;;;5.00;4.25;;;;;21.21;41.78;101571.06;5036599;28;46769;-83
2022/07/16 06:58:54;;;;;;;;;5.50;5.25;;;;;21.24;42.07;101571.59;5034157;28;48096;-87
2022/07/16 07:01:20;;;;;;;;;5.25;4.00;;;;;21.23;41.54;101571.72;5035603;28;45766;-81
2022/07/16 07:07:07;;;;;;;;;5.00;4.50;;;;;21.27;41.90;101584.59;5034992;28;45634;-81
2022/07/16 07:09:32;;;;;;;;;6.25;5.00;;;;;21.26;41.93;101576.78;5034335;28;46329;-81
2022/07/16 07:11:58;;;;;;;;;5.50;4.50;;;;;21.32;41.45;101578.81;5034848;28;45641;-81
2022/07/16 07:14:23;;;;;;;;;5.00;5.00;;;;;21.32;41.94;101571.63;5034563;28;45838;-81
2022/07/16 07:16:48;;;;;;;;;5.00;4.50;;;;;21.39;41.74;101574.53;5018128;28;47169;-84
2022/07/16 07:19:14;;;;;;;;;4.25;4.00;;;;;21.45;41.51;101584.56;5036959;28;45526;-85
2022/07/16 07:21:39;;;;;;;;;4.75;4.75;;;;;21.44;41.52;101577.56;5036873;28;45629;-85
2022/07/16 07:24:05;;;;;;;;;5.75;4.75;;;;;21.47;41.19;101579.94;5035111;28;45808;-80
2022/07/16 07:26:31;;;;;;;;;5.00;4.00;;;;;21.45;41.27;101576.56;5034578;28;45617;-79
2022/07/16 07:28:57;;;;;;;;;5.75;4.75;;;;;21.48;41.55;101586.09;5016190;28;47263;-76
2022/07/16 07:31:22;;;;;;;;;4.75;4.50;;;;;21.50;41.29;101582.28;5032973;28;45614;-78
2022/07/16 07:37:09;;;;;;;;;6.75;5.75;;;;;21.67;40.93;101584.06;5033016;28;45550;-75
2022/07/16 07:39:34;;;;;;;;;5.00;4.00;;;;;21.70;41.01;101586.41;5032932;28;46389;-78
2022/07/16 07:42:00;;;;;;;;;4.00;3.25;;;;;21.71;40.81;101574.75;5032956;28;45571;-78
2022/07/16 07:44:25;;;;;;;;;6.25;4.50;;;;;21.82;40.78;101578.13;5033382;28;45590;-77
2022/07/16 07:46:51;;;;;;;;;4.00;3.50;;;;;21.84;40.87;101578.81;5033132;28;46507;-78
2022/07/16 07:52:40;;;;;;;;;4.00;4.00;;;;;21.94;40.35;101590.22;5033950;28;45951;-78
2022/07/16 07:55:06;;;;;;;;;6.50;5.75;;;;;21.97;40.69;101587.28;5035443;28;45733;-79
2022/07/16 07:57:33;;;;;;;;;6.75;6.00;;;;;22.01;40.53;101581.47;5033022;28;45785;-78
2022/07/16 07:59:59;;;;;;;;;4.75;4.00;;;;;22.05;39.89;101584.63;5032993;28;45951;-78
2022/07/16 08:02:25;;;;;;;;;6.00;5.00;;;;;22.14;39.82;101591.69;5014758;28;45847;-79
2022/07/16 08:04:51;;;;;;;;;5.25;4.75;;;;;22.06;39.88;101568.47;5015055;28;45578;-78
2022/07/16 08:07:16;;;;;;;;;6.25;5.50;;;;;22.23;39.91;101589.91;5032949;28;45802;-78
2022/07/16 08:09:42;;;;;;;;;4.00;4.00;;;;;22.21;39.29;101576.69;5033133;28;46074;-77
2022/07/16 08:12:07;;;;;;;;;5.75;4.00;;;;;22.31;39.14;101588.06;5014731;28;45965;-78
2022/07/16 08:14:32;;;;;;;;;5.25;4.00;;;;;22.29;39.48;101583.91;5032980;28;45686;-77
2022/07/16 08:16:58;;;;;;;;;6.00;4.25;;;;;22.29;39.17;101576.75;5032693;28;46904;-77
2022/07/16 08:22:45;;;;;;;;;3.25;3.25;;;;;22.51;39.21;101588.66;5032549;28;45657;-80
2022/07/16 08:27:55;;;;;;;;;3.25;3.25;;;;;22.65;38.90;101593.38;5032653;28;46143;-79
2022/07/16 08:30:21;;;;;;;;;4.25;4.00;;;;;22.66;38.32;101587.03;5033234;28;45714;-78
2022/07/16 08:32:46;;;;;;;;;5.00;5.00;;;;;22.67;37.83;101583.38;5035631;28;45664;-80
2022/07/16 08:35:12;;;;;;;;;3.00;3.00;;;;;22.79;37.13;101597.25;5036407;28;45818;-78
2022/07/16 08:37:41;;;;;;;;;3.00;2.75;;;;;22.80;36.96;101591.75;5035899;28;45721;-79
2022/07/16 08:40:09;;;;;;;;;3.00;3.00;;;;;22.79;37.57;101582.06;5035835;28;46531;-78
2022/07/16 08:42:36;;;;;;;;;5.75;5.00;;;;;22.76;37.70;101569.03;5035698;28;45558;-78
2022/07/16 08:45:04;;;;;;;;;5.25;5.25;;;;;22.92;37.89;101589.59;5035607;28;45894;-79
2022/07/16 08:47:31;;;;;;;;;3.00;3.00;;;;;22.84;37.88;101573.53;5037471;28;46899;-91
2022/07/16 08:53:23;;;;;;;;;3.25;3.25;;;;;23.07;37.65;101592.47;5035540;28;45757;-82
2022/07/16 08:55:54;;;;;;;;;4.25;4.00;;;;;23.12;36.91;101598.97;5019039;28;45864;-82
2022/07/16 08:58:20;;;;;;;;;4.00;4.00;;;;;23.17;37.46;101607.34;5018502;28;48911;-82
2022/07/16 09:00:46;;;;;;;;;4.25;3.75;;;;;23.18;36.66;101606.34;5036803;28;45572;-83
2022/07/16 09:03:13;;;;;;;;;4.25;4.00;;;;;23.24;36.90;101599.50;5037172;28;45637;-82
2022/07/16 09:05:40;;;;;;;;;4.50;4.50;;;;;23.22;36.86;101591.63;5037234;28;45656;-82
2022/07/16 09:08:05;;;;;;;;;4.00;3.00;;;;;23.31;36.94;101603.16;5036330;28;45691;-82
2022/07/16 09:10:36;;;;;;;;;4.25;4.25;;;;;23.36;36.50;101600.84;5036375;28;45716;-82
2022/07/16 09:13:02;;;;;;;;;6.75;5.00;;;;;23.33;36.25;101588.63;5036424;28;45511;-82
2022/07/16 09:15:37;;;;;;;;;5.00;4.00;;;;;23.42;36.26;101594.81;5036846;28;45722;-81
2022/07/16 09:24:54;;;;;;;;;5.25;4.00;;;;;23.59;36.04;101601.81;4982150;28;45719;-81
2022/07/16 09:27:25;;;;;;;;;5.00;5.00;;;;;23.55;36.17;101583.59;4980246;28;45627;-82
2022/07/16 09:30:02;;;;;;;;;0.00;0.00;;;;;23.60;35.37;101592.78;4977649;28;48375;-82
2022/07/16 09:32:28;;;;;;;;;3.25;3.00;;;;;23.74;35.38;101599.31;4961126;28;47477;-82
2022/07/16 09:35:20;;;;;;;;;6.00;4.75;;;;;23.77;35.51;101602.47;4974694;28;45776;-81
2022/07/16 09:37:59;;;;;;;;;5.25;5.00;;;;;23.82;35.58;101597.44;4972488;28;45616;-82
2022/07/16 09:40:45;;;;;;;;;6.00;6.00;;;;;23.86;35.21;101600.59;4974134;28;45764;-82
2022/07/16 09:43:15;;;;;;;;;5.00;4.00;;;;;23.91;34.79;101598.28;4973037;28;46450;-81
2022/07/16 09:46:03;;;;;;;;;4.00;4.00;;;;;23.95;34.81;101596.91;4974027;28;45650;-82
2022/07/16 09:48:31;;;;;;;;;5.25;4.00;;;;;23.97;34.79;101591.41;4957802;28;46018;-82
2022/07/16 09:51:11;;;;;;;;;4.75;4.50;;;;;23.97;34.89;101586.84;4974013;28;45858;-81
2022/07/16 09:53:43;;;;;;;;;4.00;4.00;;;;;24.04;34.57;101584.31;4973694;28;45886;-82
2022/07/16 09:56:12;;;;;;;;;4.25;4.25;;;;;24.11;34.18;101596.03;4974646;28;45905;-81
2022/07/16 09:58:37;;;;;;;;;4.50;4.50;;;;;24.15;33.95;101595.50;5027671;28;45777;-82
2022/07/16 10:01:04;;;;;;;;;4.00;4.00;;;;;24.19;33.90;101596.00;5035553;28;46477;-83
2022/07/16 10:03:30;;;;;;;;;4.50;3.75;;;;;24.15;33.71;101592.81;5035614;28;46390;-82
2022/07/16 10:05:56;;;;;;;;;4.00;4.00;;;;;24.24;33.78;101604.34;5017433;28;45689;-82
2022/07/16 10:08:23;;;;;;;;;4.75;4.75;;;;;24.28;32.87;101604.88;5035989;28;45677;-81
2022/07/16 10:10:49;;;;;;;;;4.75;4.00;;;;;24.36;33.21;101612.84;5035313;28;45536;-81
2022/07/16 10:13:16;;;;;;;;;3.00;3.00;;;;;24.34;33.29;101606.84;5017398;28;46287;-81
2022/07/16 10:15:42;;;;;;;;;4.00;4.00;;;;;24.33;32.79;101589.09;5035638;28;45498;-81
2022/07/16 10:18:38;;;;;;;;;3.50;3.50;;;;;24.45;32.46;101606.47;5035818;28;46011;-82
2022/07/16 10:21:21;;;;;;;;;4.00;4.00;;;;;24.47;31.79;101615.97;5035511;28;45649;-81
2022/07/16 10:23:50;;;;;;;;;4.00;3.00;;;;;24.51;32.04;101605.75;5035930;28;45629;-83
2022/07/16 10:26:18;;;;;;;;;5.75;4.00;;;;;24.55;32.60;101599.03;5035878;28;45640;-82
2022/07/16 10:28:54;;;;;;;;;4.75;4.75;;;;;24.58;32.48;101609.41;5034299;28;45563;-81
2022/07/16 10:31:40;;;;;;;;;3.75;3.75;;;;;24.58;32.32;101602.19;5035034;28;45742;-81
2022/07/16 10:37:33;;;;;;;;;3.00;3.00;;;;;24.72;32.46;101591.75;5034970;28;45698;-81
2022/07/16 10:40:06;;;;;;;;;5.00;5.00;;;;;24.76;32.54;101596.56;5035311;28;45845;-82
2022/07/16 10:42:32;;;;;;;;;4.75;4.50;;;;;24.75;32.89;101589.53;5035429;28;45835;-82
2022/07/16 10:44:57;;;;;;;;;4.00;4.00;;;;;24.85;32.42;101592.81;5035549;28;45903;-82
2022/07/16 10:47:42;;;;;;;;;4.00;4.00;;;;;24.91;32.33;101592.13;5034893;28;45715;-81
2022/07/16 10:54:12;;;;;;;;;5.00;5.00;;;;;24.95;32.07;101585.41;5033858;28;45518;-82
2022/07/16 10:56:43;;;;;;;;;5.25;4.50;;;;;24.99;31.90;101589.38;4973168;28;45891;-82
2022/07/16 10:59:11;;;;;;;;;6.75;5.75;;;;;25.03;32.38;101592.56;4957189;28;45687;-81
2022/07/16 11:01:39;;;;;;;;;5.75;5.75;;;;;25.08;32.05;101588.31;4973199;28;45668;-82
2022/07/16 11:04:06;;;;;;;;;5.75;5.75;;;;;25.12;32.09;101596.84;4973101;28;45711;-82
2022/07/16 11:06:32;;;;;;;;;5.00;4.50;;;;;25.16;32.58;101602.66;4973418;28;46265;-82
2022/07/16 11:09:03;;;;;;;;;4.00;3.00;;;;;25.16;32.41;101590.09;4973324;28;45681;-83
2022/07/16 11:11:37;;;;;;;;;5.00;4.75;;;;;25.19;32.15;101595.13;4972985;28;45748;-82
2022/07/16 11:14:05;;;;;;;;;5.75;5.75;;;;;25.18;32.24;101580.03;4972889;28;45779;-82
2022/07/16 11:16:31;;;;;;;;;5.00;5.00;;;;;25.28;32.50;101587.81;4972930;28;45736;-82
2022/07/16 11:19:03;;;;;;;;;9.25;6.25;;;;;25.29;31.68;101582.28;4972694;28;45859;-82
2022/07/16 11:21:29;;;;;;;;;5.00;5.00;;;;;25.33;31.60;101577.38;4972310;28;46040;-82
2022/07/16 11:23:59;;;;;;;;;7.00;6.00;;;;;25.36;31.74;101583.22;4972883;28;46686;-81
2022/07/16 11:26:29;;;;;;;;;7.00;6.75;;;;;25.46;31.40;101591.84;4956126;28;48372;-82
2022/07/16 11:29:00;;;;;;;;;4.75;4.75;;;;;25.49;30.79;101586.09;4956257;28;45882;-82
2022/07/16 11:31:30;;;;;;;;;5.00;5.00;;;;;25.49;31.15;101590.63;4972788;28;45601;-83
2022/07/16 11:34:02;;;;;;;;;5.50;5.50;;;;;25.53;30.46;101596.50;5010978;28;46672;-83
2022/07/16 11:36:33;;;;;;;;;5.25;4.50;;;;;25.48;30.32;101583.59;5034369;28;45930;-82
2022/07/16 11:39:09;;;;;;;;;3.75;3.75;;;;;25.52;30.57;101579.56;5034375;28;45660;-82
2022/07/16 11:41:37;;;;;;;;;4.50;4.50;;;;;25.56;30.82;101582.72;5034126;28;45564;-82
2022/07/16 11:44:17;;;;;;;;;4.50;4.50;;;;;25.64;30.64;101585.34;5034258;28;45534;-83
2022/07/16 11:46:50;;;;;;;;;4.75;4.00;;;;;25.70;30.45;101581.91;5034261;28;46356;-82
2022/07/16 11:49:43;;;;;;;;;5.25;5.25;;;;;25.76;30.19;101586.53;5015805;28;45912;-83
2022/07/16 11:52:20;;;;;;;;;7.00;7.00;;;;;25.84;30.38;101586.47;5031062;28;45670;-83
2022/07/16 11:54:47;;;;;;;;;6.00;4.75;;;;;25.85;29.70;101578.25;5032485;28;47552;-83
2022/07/16 11:57:13;;;;;;;;;3.75;3.75;;;;;25.88;29.47;101580.53;5033838;28;46641;-83
2022/07/16 11:59:48;;;;;;;;;4.25;4.25;;;;;25.94;29.14;101586.19;5034070;28;45586;-81
2022/07/16 12:02:18;;;;;;;;;5.75;5.75;;;;;25.98;29.64;101582.09;5034055;28;45828;-82
2022/07/16 12:04:52;;;;;;;;;5.00;5.00;;;;;25.97;29.80;101558.94;5033343;28;45649;-84
2022/07/16 12:07:32;;;;;;;;;6.00;5.25;;;;;26.04;29.44;101562.56;5033764;28;46465;-82
2022/07/16 12:10:00;;;;;;;;;3.75;3.75;;;;;26.15;29.22;101578.22;5034022;28;45703;-82
2022/07/16 12:12:27;;;;;;;;;5.00;5.00;;;;;26.19;29.54;101576.81;5033942;28;45525;-82
2022/07/16 12:14:59;;;;;;;;;6.25;4.75;;;;;26.24;29.43;101582.47;5033788;28;48809;-82
2022/07/16 12:17:26;;;;;;;;;5.25;5.00;;;;;26.25;29.49;101568.88;5015515;28;46276;-82
2022/07/16 12:23:34;;;;;;;;;3.00;3.00;;;;;26.34;28.57;101560.72;4972231;28;45596;-82
2022/07/16 12:26:01;;;;;;;;;4.25;4.25;;;;;26.36;28.35;101556.78;4972374;28;45735;-82
2022/07/16 12:28:27;;;;;;;;;4.00;3.50;;;;;26.40;28.63;101568.81;4972384;28;46068;-82
2022/07/16 12:30:58;;;;;;;;;4.00;4.00;;;;;26.37;28.25;101561.16;4972285;28;45613;-82
2022/07/16 12:33:27;;;;;;;;;5.00;5.00;;;;;26.43;28.23;101559.56;4972240;28;45792;-82
2022/07/16 12:39:20;;;;;;;;;4.50;4.50;;;;;26.51;28.27;101554.88;4971519;28;46145;-82
2022/07/16 12:41:46;;;;;;;;;5.00;5.00;;;;;26.51;28.75;101554.88;4971892;28;45742;-80
2022/07/16 12:44:14;;;;;;;;;6.25;5.75;;;;;26.55;28.43;101542.75;4955716;28;45730;-83
2022/07/16 12:46:44;;;;;;;;;6.00;5.00;;;;;26.61;29.10;101549.22;4972039;28;45663;-82
2022/07/16 12:49:13;;;;;;;;;4.25;4.25;;;;;26.69;29.01;101543.72;4972031;28;46493;-83
2022/07/16 13:00:27;;;;;;;;;8.75;6.00;;;;;26.86;28.30;101541.59;5032622;28;45795;-81
2022/07/16 13:02:52;;;;;;;;;5.00;5.00;;;;;26.88;28.05;101540.44;5014684;28;45561;-81
2022/07/16 13:05:18;;;;;;;;;5.50;5.50;;;;;26.92;28.54;101549.78;5033201;28;45487;-80
2022/07/16 13:11:09;;;;;;;;;7.00;5.50;;;;;27.03;27.64;101543.88;5032345;28;45854;-82
2022/07/16 13:13:36;;;;;;;;;8.00;5.25;;;;;27.05;27.54;101557.13;5032817;28;45775;-82
2022/07/16 13:16:03;;;;;;;;;4.50;4.50;;;;;27.06;27.24;101542.63;5033101;28;45607;-82
2022/07/16 13:18:28;;;;;;;;;5.50;5.00;;;;;27.07;27.49;101536.25;5036091;28;45606;-82